sensor_id;sensor_type;location;lat;lon;timestamp;temperature;humidity
28175;SHT30;59417;44.788;10.334;2023-04-01T00:01:05;13.74;71.55
28175;SHT30;59417;44.788;10.334;2023-04-01T00:03:31;13.45;72.49
28175;SHT30;59417;44.788;10.334;2023-04-01T00:05:59;13.40;72.96
28175;SHT30;59417;44.788;10.334;2023-04-01T00:08:26;13.40;72.80
28175;SHT30;59417;44.788;10.334;2023-04-01T00:10:52;13.45;72.49
28175;SHT30;59417;44.788;10.334;2023-04-01T00:13:18;13.50;72.26
28175;SHT30;59417;44.788;10.334;2023-04-01T00:15:44;13.50;71.97
28175;SHT30;59417;44.788;10.334;2023-04-01T00:18:10;13.43;72.42
28175;SHT30;59417;44.788;10.334;2023-04-01T00:20:36;13.57;71.88
28175;SHT30;59417;44.788;10.334;2023-04-01T00:23:02;13.51;72.47
28175;SHT30;59417;44.788;10.334;2023-04-01T00:25:28;13.64;71.60
28175;SHT30;59417;44.788;10.334;2023-04-01T00:27:54;13.66;71.53
28175;SHT30;59417;44.788;10.334;2023-04-01T00:30:19;13.59;71.82
28175;SHT30;59417;44.788;10.334;2023-04-01T00:32:45;13.57;71.89
28175;SHT30;59417;44.788;10.334;2023-04-01T00:35:11;13.57;71.89
28175;SHT30;59417;44.788;10.334;2023-04-01T00:37:38;13.37;72.63
28175;SHT30;59417;44.788;10.334;2023-04-01T00:40:06;13.41;72.40
28175;SHT30;59417;44.788;10.334;2023-04-01T00:42:33;13.40;72.52
28175;SHT30;59417;44.788;10.334;2023-04-01T00:45:23;13.35;72.50
28175;SHT30;59417;44.788;10.334;2023-04-01T00:47:50;13.38;72.23
28175;SHT30;59417;44.788;10.334;2023-04-01T00:50:16;13.43;71.86
28175;SHT30;59417;44.788;10.334;2023-04-01T00:52:42;13.43;71.93
28175;SHT30;59417;44.788;10.334;2023-04-01T00:55:10;13.37;72.21
28175;SHT30;59417;44.788;10.334;2023-04-01T00:57:39;13.43;71.94
28175;SHT30;59417;44.788;10.334;2023-04-01T01:00:10;13.34;72.35
28175;SHT30;59417;44.788;10.334;2023-04-01T01:02:36;13.34;72.10
28175;SHT30;59417;44.788;10.334;2023-04-01T01:05:02;13.35;71.91
28175;SHT30;59417;44.788;10.334;2023-04-01T01:10:31;13.27;72.31
28175;SHT30;59417;44.788;10.334;2023-04-01T01:13:10;13.23;72.43
28175;SHT30;59417;44.788;10.334;2023-04-01T01:15:49;13.16;72.51
28175;SHT30;59417;44.788;10.334;2023-04-01T01:18:28;13.20;72.40
28175;SHT30;59417;44.788;10.334;2023-04-01T01:35:14;13.33;70.21
28175;SHT30;59417;44.788;10.334;2023-04-01T01:37:43;13.27;70.71
28175;SHT30;59417;44.788;10.334;2023-04-01T01:40:11;13.33;70.54
28175;SHT30;59417;44.788;10.334;2023-04-01T01:42:41;13.26;71.00
28175;SHT30;59417;44.788;10.334;2023-04-01T01:45:10;13.14;71.01
28175;SHT30;59417;44.788;10.334;2023-04-01T01:47:38;13.20;71.23
28175;SHT30;59417;44.788;10.334;2023-04-01T01:50:07;13.20;71.15
28175;SHT30;59417;44.788;10.334;2023-04-01T01:52:33;13.17;71.12
28175;SHT30;59417;44.788;10.334;2023-04-01T01:54:59;13.24;70.75
28175;SHT30;59417;44.788;10.334;2023-04-01T01:57:36;13.24;70.51
28175;SHT30;59417;44.788;10.334;2023-04-01T02:00:09;12.93;71.18
28175;SHT30;59417;44.788;10.334;2023-04-01T02:02:45;12.92;71.41
28175;SHT30;59417;44.788;10.334;2023-04-01T02:05:17;12.96;71.02
28175;SHT30;59417;44.788;10.334;2023-04-01T02:07:48;12.99;71.00
28175;SHT30;59417;44.788;10.334;2023-04-01T02:10:17;12.84;71.10
28175;SHT30;59417;44.788;10.334;2023-04-01T02:12:45;12.97;70.48
28175;SHT30;59417;44.788;10.334;2023-04-01T02:15:13;12.97;70.34
28175;SHT30;59417;44.788;10.334;2023-04-01T02:17:45;13.07;69.60
28175;SHT30;59417;44.788;10.334;2023-04-01T02:20:16;12.82;70.20
28175;SHT30;59417;44.788;10.334;2023-04-01T02:23:09;12.86;70.02
28175;SHT30;59417;44.788;10.334;2023-04-01T02:25:37;12.77;70.40
28175;SHT30;59417;44.788;10.334;2023-04-01T02:28:05;12.87;69.88
28175;SHT30;59417;44.788;10.334;2023-04-01T02:30:34;13.00;69.40
28175;SHT30;59417;44.788;10.334;2023-04-01T02:33:01;13.02;69.65
28175;SHT30;59417;44.788;10.334;2023-04-01T02:35:29;12.97;70.19
28175;SHT30;59417;44.788;10.334;2023-04-01T02:37:55;12.92;70.63
28175;SHT30;59417;44.788;10.334;2023-04-01T02:40:22;12.77;70.93
28175;SHT30;59417;44.788;10.334;2023-04-01T02:42:48;12.79;71.20
28175;SHT30;59417;44.788;10.334;2023-04-01T02:45:14;12.59;71.73
28175;SHT30;59417;44.788;10.334;2023-04-01T02:47:40;12.68;71.65
28175;SHT30;59417;44.788;10.334;2023-04-01T02:50:07;12.68;71.54
28175;SHT30;59417;44.788;10.334;2023-04-01T02:52:33;12.44;71.90
28175;SHT30;59417;44.788;10.334;2023-04-01T02:55:00;12.42;72.30
28175;SHT30;59417;44.788;10.334;2023-04-01T02:57:26;12.14;72.91
28175;SHT30;59417;44.788;10.334;2023-04-01T02:59:52;12.05;73.49
28175;SHT30;59417;44.788;10.334;2023-04-01T03:02:18;12.14;73.37
28175;SHT30;59417;44.788;10.334;2023-04-01T03:04:43;12.37;72.71
28175;SHT30;59417;44.788;10.334;2023-04-01T03:07:10;12.37;72.44
28175;SHT30;59417;44.788;10.334;2023-04-01T03:09:37;12.05;73.20
28175;SHT30;59417;44.788;10.334;2023-04-01T03:12:03;11.97;73.78
28175;SHT30;59417;44.788;10.334;2023-04-01T03:14:32;11.88;74.18
28175;SHT30;59417;44.788;10.334;2023-04-01T03:16:57;11.98;73.77
28175;SHT30;59417;44.788;10.334;2023-04-01T03:19:23;12.09;73.99
28175;SHT30;59417;44.788;10.334;2023-04-01T03:21:49;12.29;73.30
28175;SHT30;59417;44.788;10.334;2023-04-01T03:24:15;12.22;73.19
28175;SHT30;59417;44.788;10.334;2023-04-01T03:26:41;12.18;72.16
28175;SHT30;59417;44.788;10.334;2023-04-01T03:29:06;12.14;72.81
28175;SHT30;59417;44.788;10.334;2023-04-01T03:31:32;12.09;72.97
28175;SHT30;59417;44.788;10.334;2023-04-01T03:33:58;12.01;73.48
28175;SHT30;59417;44.788;10.334;2023-04-01T03:36:23;12.07;73.36
28175;SHT30;59417;44.788;10.334;2023-04-01T03:38:49;11.94;72.77
28175;SHT30;59417;44.788;10.334;2023-04-01T03:41:21;11.80;73.77
28175;SHT30;59417;44.788;10.334;2023-04-01T03:43:47;11.59;74.53
28175;SHT30;59417;44.788;10.334;2023-04-01T03:46:22;11.29;75.54
28175;SHT30;59417;44.788;10.334;2023-04-01T03:48:47;11.55;75.16
28175;SHT30;59417;44.788;10.334;2023-04-01T03:51:13;11.45;75.41
28175;SHT30;59417;44.788;10.334;2023-04-01T03:53:40;11.38;75.09
28175;SHT30;59417;44.788;10.334;2023-04-01T03:56:06;11.33;75.08
28175;SHT30;59417;44.788;10.334;2023-04-01T03:58:35;11.43;74.83
28175;SHT30;59417;44.788;10.334;2023-04-01T04:01:02;11.67;73.83
28175;SHT30;59417;44.788;10.334;2023-04-01T04:03:30;11.45;74.38
28175;SHT30;59417;44.788;10.334;2023-04-01T04:05:56;11.23;75.02
28175;SHT30;59417;44.788;10.334;2023-04-01T04:08:22;11.39;75.09
28175;SHT30;59417;44.788;10.334;2023-04-01T04:10:55;11.38;74.71
28175;SHT30;59417;44.788;10.334;2023-04-01T04:13:21;11.39;74.43
28175;SHT30;59417;44.788;10.334;2023-04-01T04:15:53;11.60;73.71
28175;SHT30;59417;44.788;10.334;2023-04-01T04:18:19;11.33;74.54
28175;SHT30;59417;44.788;10.334;2023-04-01T04:20:46;11.15;76.18
28175;SHT30;59417;44.788;10.334;2023-04-01T04:23:17;10.94;75.80
28175;SHT30;59417;44.788;10.334;2023-04-01T04:26:03;11.02;76.00
28175;SHT30;59417;44.788;10.334;2023-04-01T04:28:29;11.02;76.21
28175;SHT30;59417;44.788;10.334;2023-04-01T04:30:57;11.19;75.94
28175;SHT30;59417;44.788;10.334;2023-04-01T04:33:23;11.29;75.35
28175;SHT30;59417;44.788;10.334;2023-04-01T04:35:50;11.29;75.14
28175;SHT30;59417;44.788;10.334;2023-04-01T04:38:16;11.30;74.80
28175;SHT30;59417;44.788;10.334;2023-04-01T04:40:43;11.33;74.98
28175;SHT30;59417;44.788;10.334;2023-04-01T04:43:13;11.46;73.66
28175;SHT30;59417;44.788;10.334;2023-04-01T04:45:39;11.20;73.92
28175;SHT30;59417;44.788;10.334;2023-04-01T04:48:05;11.01;74.86
28175;SHT30;59417;44.788;10.334;2023-04-01T04:50:32;11.08;75.00
28175;SHT30;59417;44.788;10.334;2023-04-01T04:52:58;11.25;74.93
28175;SHT30;59417;44.788;10.334;2023-04-01T04:55:23;11.11;75.00
28175;SHT30;59417;44.788;10.334;2023-04-01T04:58:05;11.04;75.16
28175;SHT30;59417;44.788;10.334;2023-04-01T05:00:32;10.68;75.95
28175;SHT30;59417;44.788;10.334;2023-04-01T05:03:00;10.75;76.23
28175;SHT30;59417;44.788;10.334;2023-04-01T05:05:25;10.92;76.10
28175;SHT30;59417;44.788;10.334;2023-04-01T05:07:51;10.84;76.03
28175;SHT30;59417;44.788;10.334;2023-04-01T05:10:19;10.82;76.20
28175;SHT30;59417;44.788;10.334;2023-04-01T05:12:46;11.02;75.35
28175;SHT30;59417;44.788;10.334;2023-04-01T05:15:16;10.81;75.97
28175;SHT30;59417;44.788;10.334;2023-04-01T05:17:42;10.80;76.02
28175;SHT30;59417;44.788;10.334;2023-04-01T05:20:11;10.98;75.47
28175;SHT30;59417;44.788;10.334;2023-04-01T05:22:37;11.05;74.81
28175;SHT30;59417;44.788;10.334;2023-04-01T05:25:03;11.05;74.26
28175;SHT30;59417;44.788;10.334;2023-04-01T05:27:29;10.99;74.65
28175;SHT30;59417;44.788;10.334;2023-04-01T05:29:55;10.96;74.97
28175;SHT30;59417;44.788;10.334;2023-04-01T05:32:39;11.15;74.41
28175;SHT30;59417;44.788;10.334;2023-04-01T05:35:06;11.20;73.71
28175;SHT30;59417;44.788;10.334;2023-04-01T05:37:34;10.80;75.45
28175;SHT30;59417;44.788;10.334;2023-04-01T05:40:01;10.75;75.48
28175;SHT30;59417;44.788;10.334;2023-04-01T05:42:28;10.87;75.05
28175;SHT30;59417;44.788;10.334;2023-04-01T05:44:54;10.88;75.54
28175;SHT30;59417;44.788;10.334;2023-04-01T05:47:59;10.96;75.22
28175;SHT30;59417;44.788;10.334;2023-04-01T05:50:27;10.91;75.66
28175;SHT30;59417;44.788;10.334;2023-04-01T05:52:53;10.81;75.54
28175;SHT30;59417;44.788;10.334;2023-04-01T05:55:19;10.92;75.85
28175;SHT30;59417;44.788;10.334;2023-04-01T05:57:46;10.99;75.62
28175;SHT30;59417;44.788;10.334;2023-04-01T06:00:14;11.15;75.47
28175;SHT30;59417;44.788;10.334;2023-04-01T06:02:40;11.26;74.98
28175;SHT30;59417;44.788;10.334;2023-04-01T06:05:20;11.23;75.34
28175;SHT30;59417;44.788;10.334;2023-04-01T06:07:46;11.35;75.23
28175;SHT30;59417;44.788;10.334;2023-04-01T06:10:18;11.47;74.79
28175;SHT30;59417;44.788;10.334;2023-04-01T06:12:57;11.60;74.13
28175;SHT30;59417;44.788;10.334;2023-04-01T06:15:53;11.55;74.47
28175;SHT30;59417;44.788;10.334;2023-04-01T06:26:29;11.78;73.64
28175;SHT30;59417;44.788;10.334;2023-04-01T06:29:35;12.02;72.85
28175;SHT30;59417;44.788;10.334;2023-04-01T06:40:37;12.02;66.83
28175;SHT30;59417;44.788;10.334;2023-04-01T06:43:13;12.11;65.56
28175;SHT30;59417;44.788;10.334;2023-04-01T06:49:46;12.51;62.28
28175;SHT30;59417;44.788;10.334;2023-04-01T06:53:02;12.56;60.55
28175;SHT30;59417;44.788;10.334;2023-04-01T06:55:53;12.66;60.44
28175;SHT30;59417;44.788;10.334;2023-04-01T06:58:51;12.89;60.66
28175;SHT30;59417;44.788;10.334;2023-04-01T07:01:23;12.96;59.41
28175;SHT30;59417;44.788;10.334;2023-04-01T07:04:11;13.10;59.62
28175;SHT30;59417;44.788;10.334;2023-04-01T07:06:47;13.03;59.73
28175;SHT30;59417;44.788;10.334;2023-04-01T07:09:20;13.02;60.47
28175;SHT30;59417;44.788;10.334;2023-04-01T07:15:34;13.13;60.10
28175;SHT30;59417;44.788;10.334;2023-04-01T07:18:14;13.23;60.95
28175;SHT30;59417;44.788;10.334;2023-04-01T07:20:41;13.43;60.08
28175;SHT30;59417;44.788;10.334;2023-04-01T07:23:20;13.61;60.21
28175;SHT30;59417;44.788;10.334;2023-04-01T07:26:19;13.85;60.40
28175;SHT30;59417;44.788;10.334;2023-04-01T07:29:12;14.12;59.18
28175;SHT30;59417;44.788;10.334;2023-04-01T07:52:06;14.77;57.94
28175;SHT30;59417;44.788;10.334;2023-04-01T07:57:22;14.94;57.05
28175;SHT30;59417;44.788;10.334;2023-04-01T08:17:23;15.70;54.07
28175;SHT30;59417;44.788;10.334;2023-04-01T08:22:53;16.10;54.61
28175;SHT30;59417;44.788;10.334;2023-04-01T08:25:30;16.38;52.07
28175;SHT30;59417;44.788;10.334;2023-04-01T08:28:17;16.54;52.85
28175;SHT30;59417;44.788;10.334;2023-04-01T08:30:53;16.48;51.55
28175;SHT30;59417;44.788;10.334;2023-04-01T08:33:28;16.62;51.42
28175;SHT30;59417;44.788;10.334;2023-04-01T08:36:10;16.65;49.26
28175;SHT30;59417;44.788;10.334;2023-04-01T08:38:46;16.82;50.06
28175;SHT30;59417;44.788;10.334;2023-04-01T08:50:12;17.29;48.22
28175;SHT30;59417;44.788;10.334;2023-04-01T08:53:13;17.27;47.28
28175;SHT30;59417;44.788;10.334;2023-04-01T09:01:26;17.73;53.37
28175;SHT30;59417;44.788;10.334;2023-04-01T09:04:22;17.94;54.12
28175;SHT30;59417;44.788;10.334;2023-04-01T09:37:57;18.37;51.02
28175;SHT30;59417;44.788;10.334;2023-04-01T09:40:55;18.06;49.60
28175;SHT30;59417;44.788;10.334;2023-04-01T09:47:04;18.05;49.78
28175;SHT30;59417;44.788;10.334;2023-04-01T09:53:04;18.35;50.28
28175;SHT30;59417;44.788;10.334;2023-04-01T10:12:08;18.77;49.97
28175;SHT30;59417;44.788;10.334;2023-04-01T10:16:43;18.48;46.29
28175;SHT30;59417;44.788;10.334;2023-04-01T10:22:29;18.67;49.14
28175;SHT30;59417;44.788;10.334;2023-04-01T10:27:49;18.83;47.23
28175;SHT30;59417;44.788;10.334;2023-04-01T10:53:42;19.65;36.41
28175;SHT30;59417;44.788;10.334;2023-04-01T10:59:51;19.92;31.34
28175;SHT30;59417;44.788;10.334;2023-04-01T11:34:11;21.43;23.89
28175;SHT30;59417;44.788;10.334;2023-04-01T11:43:01;21.31;25.97
28175;SHT30;59417;44.788;10.334;2023-04-01T11:48:42;21.42;24.35
28175;SHT30;59417;44.788;10.334;2023-04-01T11:59:37;21.39;27.03
28175;SHT30;59417;44.788;10.334;2023-04-01T12:02:44;21.74;25.61
28175;SHT30;59417;44.788;10.334;2023-04-01T12:08:16;21.49;26.36
28175;SHT30;59417;44.788;10.334;2023-04-01T12:13:36;21.56;25.69
28175;SHT30;59417;44.788;10.334;2023-04-01T12:16:26;21.67;26.22
28175;SHT30;59417;44.788;10.334;2023-04-01T12:24:52;21.52;26.22
28175;SHT30;59417;44.788;10.334;2023-04-01T12:27:43;21.71;25.72
28175;SHT30;59417;44.788;10.334;2023-04-01T12:41:35;21.59;25.23
28175;SHT30;59417;44.788;10.334;2023-04-01T12:46:57;22.24;24.83
28175;SHT30;59417;44.788;10.334;2023-04-01T13:19:58;22.04;26.00
28175;SHT30;59417;44.788;10.334;2023-04-01T13:27:48;22.06;27.11
28175;SHT30;59417;44.788;10.334;2023-04-01T13:30:35;22.35;26.32
28175;SHT30;59417;44.788;10.334;2023-04-01T13:39:08;22.18;26.28
28175;SHT30;59417;44.788;10.334;2023-04-01T14:00:54;22.04;26.59
28175;SHT30;59417;44.788;10.334;2023-04-01T14:06:06;21.97;25.90
28175;SHT30;59417;44.788;10.334;2023-04-01T14:16:54;22.11;25.43
28175;SHT30;59417;44.788;10.334;2023-04-01T14:22:42;22.04;25.92
28175;SHT30;59417;44.788;10.334;2023-04-01T14:31:04;22.14;26.39
28175;SHT30;59417;44.788;10.334;2023-04-01T14:36:46;21.93;27.26
28175;SHT30;59417;44.788;10.334;2023-04-01T14:48:15;21.96;24.85
28175;SHT30;59417;44.788;10.334;2023-04-01T14:50:20;21.96;24.44
28175;SHT30;59417;44.788;10.334;2023-04-01T14:52:57;22.07;27.03
28175;SHT30;59417;44.788;10.334;2023-04-01T14:55:41;22.06;26.89
28175;SHT30;59417;44.788;10.334;2023-04-01T14:58:15;21.92;26.60
28175;SHT30;59417;44.788;10.334;2023-04-01T15:00:59;21.97;26.09
28175;SHT30;59417;44.788;10.334;2023-04-01T15:12:14;21.84;26.16
28175;SHT30;59417;44.788;10.334;2023-04-01T15:24:22;21.96;26.63
28175;SHT30;59417;44.788;10.334;2023-04-01T15:34:41;21.63;26.22
28175;SHT30;59417;44.788;10.334;2023-04-01T15:51:11;21.90;26.80
28175;SHT30;59417;44.788;10.334;2023-04-01T16:18:36;21.56;26.93
28175;SHT30;59417;44.788;10.334;2023-04-01T16:29:57;21.36;27.96
28175;SHT30;59417;44.788;10.334;2023-04-01T16:32:37;21.52;29.03
28175;SHT30;59417;44.788;10.334;2023-04-01T16:37:55;21.73;28.93
28175;SHT30;59417;44.788;10.334;2023-04-01T16:40:35;21.65;29.62
28175;SHT30;59417;44.788;10.334;2023-04-01T16:45:56;21.38;31.55
28175;SHT30;59417;44.788;10.334;2023-04-01T16:48:54;21.19;32.16
28175;SHT30;59417;44.788;10.334;2023-04-01T16:51:16;21.08;32.17
28175;SHT30;59417;44.788;10.334;2023-04-01T16:54:05;21.18;32.22
28175;SHT30;59417;44.788;10.334;2023-04-01T16:56:49;21.19;32.73
28175;SHT30;59417;44.788;10.334;2023-04-01T17:02:04;21.19;31.75
28175;SHT30;59417;44.788;10.334;2023-04-01T17:05:05;21.26;31.62
28175;SHT30;59417;44.788;10.334;2023-04-01T17:07:35;21.18;31.66
28175;SHT30;59417;44.788;10.334;2023-04-01T17:10:28;21.05;31.43
28175;SHT30;59417;44.788;10.334;2023-04-01T17:19:05;20.65;32.73
28175;SHT30;59417;44.788;10.334;2023-04-01T17:27:26;20.03;36.61
28175;SHT30;59417;44.788;10.334;2023-04-01T17:29:59;19.90;37.38
28175;SHT30;59417;44.788;10.334;2023-04-01T17:35:28;19.79;38.04
28175;SHT30;59417;44.788;10.334;2023-04-01T17:51:33;19.08;38.49
28175;SHT30;59417;44.788;10.334;2023-04-01T17:57:22;18.86;38.96
28175;SHT30;59417;44.788;10.334;2023-04-01T18:00:06;18.81;38.99
28175;SHT30;59417;44.788;10.334;2023-04-01T18:14:11;18.69;38.35
28175;SHT30;59417;44.788;10.334;2023-04-01T18:16:55;18.70;37.94
28175;SHT30;59417;44.788;10.334;2023-04-01T18:25:39;18.69;37.66
28175;SHT30;59417;44.788;10.334;2023-04-01T18:30:42;18.60;38.59
28175;SHT30;59417;44.788;10.334;2023-04-01T18:38:33;18.60;38.23
28175;SHT30;59417;44.788;10.334;2023-04-01T18:41:15;18.66;38.39
28175;SHT30;59417;44.788;10.334;2023-04-01T18:46:27;18.60;38.76
28175;SHT30;59417;44.788;10.334;2023-04-01T18:51:55;18.52;39.01
28175;SHT30;59417;44.788;10.334;2023-04-01T18:54:30;18.37;39.50
28175;SHT30;59417;44.788;10.334;2023-04-01T18:57:14;18.37;39.67
28175;SHT30;59417;44.788;10.334;2023-04-01T18:59:48;18.35;39.64
28175;SHT30;59417;44.788;10.334;2023-04-01T19:02:34;18.33;39.98
28175;SHT30;59417;44.788;10.334;2023-04-01T19:13:17;18.23;40.52
28175;SHT30;59417;44.788;10.334;2023-04-01T19:16:04;18.26;40.72
28175;SHT30;59417;44.788;10.334;2023-04-01T19:21:16;18.26;40.43
28175;SHT30;59417;44.788;10.334;2023-04-01T19:26:56;18.19;40.31
28175;SHT30;59417;44.788;10.334;2023-04-01T19:35:23;18.15;40.92
28175;SHT30;59417;44.788;10.334;2023-04-01T19:38:04;18.09;41.02
28175;SHT30;59417;44.788;10.334;2023-04-01T19:41:01;18.08;40.62
28175;SHT30;59417;44.788;10.334;2023-04-01T19:46:23;18.11;41.11
28175;SHT30;59417;44.788;10.334;2023-04-01T19:54:20;17.88;41.90
28175;SHT30;59417;44.788;10.334;2023-04-01T19:57:10;17.92;41.66
28175;SHT30;59417;44.788;10.334;2023-04-01T20:04:44;17.77;43.04
28175;SHT30;59417;44.788;10.334;2023-04-01T20:07:40;17.74;42.87
28175;SHT30;59417;44.788;10.334;2023-04-01T20:10:16;17.64;42.53
28175;SHT30;59417;44.788;10.334;2023-04-01T20:16:10;17.44;42.13
28175;SHT30;59417;44.788;10.334;2023-04-01T20:18:41;17.47;42.13
28175;SHT30;59417;44.788;10.334;2023-04-01T20:23:43;17.34;41.92
28175;SHT30;59417;44.788;10.334;2023-04-01T20:26:20;17.24;42.00
28175;SHT30;59417;44.788;10.334;2023-04-01T20:32:06;17.16;41.34
28175;SHT30;59417;44.788;10.334;2023-04-01T20:37:57;17.12;41.88
28175;SHT30;59417;44.788;10.334;2023-04-01T20:40:40;17.17;41.54
28175;SHT30;59417;44.788;10.334;2023-04-01T20:50:34;17.17;41.93
28175;SHT30;59417;44.788;10.334;2023-04-01T21:17:44;16.86;42.97
28175;SHT30;59417;44.788;10.334;2023-04-01T21:35:26;16.65;42.47
28175;SHT30;59417;44.788;10.334;2023-04-01T21:50:00;16.55;42.38
28175;SHT30;59417;44.788;10.334;2023-04-01T21:58:52;16.54;42.88
28175;SHT30;59417;44.788;10.334;2023-04-01T22:07:25;16.45;43.24
28175;SHT30;59417;44.788;10.334;2023-04-01T22:15:20;16.09;43.89
28175;SHT30;59417;44.788;10.334;2023-04-01T22:20:35;16.06;44.04
28175;SHT30;59417;44.788;10.334;2023-04-01T22:31:28;15.97;44.11
28175;SHT30;59417;44.788;10.334;2023-04-01T22:34:03;15.89;44.39
28175;SHT30;59417;44.788;10.334;2023-04-01T22:39:24;15.93;44.16
28175;SHT30;59417;44.788;10.334;2023-04-01T22:44:51;15.87;44.34
28175;SHT30;59417;44.788;10.334;2023-04-01T22:47:57;15.86;44.11
28175;SHT30;59417;44.788;10.334;2023-04-01T22:53:02;15.98;43.75
28175;SHT30;59417;44.788;10.334;2023-04-01T22:55:37;15.93;44.08
28175;SHT30;59417;44.788;10.334;2023-04-01T22:58:08;16.09;43.91
28175;SHT30;59417;44.788;10.334;2023-04-01T23:00:40;16.06;44.20
28175;SHT30;59417;44.788;10.334;2023-04-01T23:03:31;16.16;43.83
28175;SHT30;59417;44.788;10.334;2023-04-01T23:05:59;16.07;43.89
28175;SHT30;59417;44.788;10.334;2023-04-01T23:11:17;15.97;44.20
28175;SHT30;59417;44.788;10.334;2023-04-01T23:13:47;15.97;43.98
28175;SHT30;59417;44.788;10.334;2023-04-01T23:16:28;15.98;44.42
28175;SHT30;59417;44.788;10.334;2023-04-01T23:19:04;15.93;44.22
28175;SHT30;59417;44.788;10.334;2023-04-01T23:24:19;15.91;44.49
28175;SHT30;59417;44.788;10.334;2023-04-01T23:29:35;16.03;45.20
28175;SHT30;59417;44.788;10.334;2023-04-01T23:32:03;16.13;45.09
28175;SHT30;59417;44.788;10.334;2023-04-01T23:34:34;16.00;45.57
28175;SHT30;59417;44.788;10.334;2023-04-01T23:37:04;16.04;46.09
28175;SHT30;59417;44.788;10.334;2023-04-01T23:39:32;15.84;46.03
28175;SHT30;59417;44.788;10.334;2023-04-01T23:42:25;15.86;45.82
28175;SHT30;59417;44.788;10.334;2023-04-01T23:44:55;16.03;46.10
28175;SHT30;59417;44.788;10.334;2023-04-01T23:47:33;15.89;46.60
28175;SHT30;59417;44.788;10.334;2023-04-01T23:50:25;15.90;46.40
28175;SHT30;59417;44.788;10.334;2023-04-01T23:53:03;15.96;46.71
28175;SHT30;59417;44.788;10.334;2023-04-01T23:59:30;15.93;47.06
